Time;durP1;ratioP1;P1;durP2;ratioP2;P2;SDS_P1;SDS_P2;PMS_P1;PMS_P2;Temp;Humidity;BMP_temperature;BMP_pressure;BME280_temperature;BME280_humidity;BME280_pressure;Samples;Min_cycle;Max_cycle;Signal;HPM_P1;HPM_P2
2022/11/11 00:02:22;;;;;;;;;;;;;;;5.96;94.88;101736.30;116335;1302;22460;-69
2022/11/11 00:05:11;;;;;;;;;;;;;;;5.99;94.83;101735.09;116366;1291;22391;-68
2022/11/11 00:07:59;;;;;;;;;;;;;;;6.04;94.79;101738.56;116348;1303;22452;-69
2022/11/11 00:10:47;;;;;;;;;;;;;;;6.12;94.97;101736.50;116346;1285;22444;-68
2022/11/11 00:13:36;;;;;;;;;;;;;;;6.23;95.06;101738.43;116343;1278;22436;-69
2022/11/11 00:25:04;;;;;;;;;;;;;;;6.34;95.27;101739.84;116337;1303;22420;-70
2022/11/11 00:25:55;;;;;;;;;;;;;;;6.44;95.04;101739.66;116394;1295;25347;-70
2022/11/11 00:28:45;;;;;;;;;;;;;;;6.45;94.91;101739.84;116318;1284;25263;-70
2022/11/11 00:31:32;;;;;;;;;;;;;;;6.49;94.81;101740.19;116354;1302;22521;-69
2022/11/11 00:34:20;;;;;;;;;;;;;;;6.52;94.67;101737.43;116345;1303;25366;-69
2022/11/11 00:37:08;;;;;;;;;;;;;;;6.54;94.70;101732.91;116298;1303;22398;-68
2022/11/11 00:40:00;;;;;;;;;;;;;;;6.55;94.74;101732.40;116352;1284;22436;-69
2022/11/11 00:42:50;;;;;;;;;;;;;;;6.54;94.48;101732.74;116346;1284;22443;-70
2022/11/11 00:45:37;;;;;;;;;;;;;;;6.50;94.35;101731.54;116349;1291;22509;-70
2022/11/11 00:51:32;;;;;;;;;;;;;;;6.47;94.52;101735.00;116348;1287;22401;-70
2022/11/11 00:54:20;;;;;;;;;;;;;;;6.51;94.91;101735.68;116395;1281;22644;-69
2022/11/11 00:57:09;;;;;;;;;;;;;;;6.58;94.95;101738.46;116346;1285;22499;-69
2022/11/11 00:59:56;;;;;;;;;;;;;;;6.66;95.04;101739.33;116376;1275;22448;-68
2022/11/11 01:02:46;;;;;;;;;;;;;;;6.76;95.27;101739.33;116340;1303;25354;-69
2022/11/11 01:05:38;;;;;;;;;;;;;;;6.87;95.53;101741.41;116334;1270;22429;-68
2022/11/11 01:08:28;;;;;;;;;;;;;;;6.93;95.54;101733.59;116346;1297;24274;-69
2022/11/11 01:11:21;;;;;;;;;;;;;;;6.96;95.42;101736.37;116375;1303;22848;-69
2022/11/11 01:14:11;;;;;;;;;;;;;;;7.01;95.27;101735.84;116376;1300;24386;-69
2022/11/11 01:16:58;;;;;;;;;;;;;;;7.07;95.43;101736.35;116372;1287;24278;-69
2022/11/11 01:19:46;;;;;;;;;;;;;;;7.14;95.32;101734.77;116345;1290;22402;-69
2022/11/11 01:22:34;;;;;;;;;;;;;;;7.21;95.48;101729.73;116370;1282;22543;-70
2022/11/11 01:25:22;;;;;;;;;;;;;;;7.28;95.51;101728.84;116401;1284;22598;-70
2022/11/11 01:28:10;;;;;;;;;;;;;;;7.31;95.31;101725.71;116370;1303;22449;-69
2022/11/11 01:31:01;;;;;;;;;;;;;;;7.32;95.28;101728.83;116355;1285;22448;-70
2022/11/11 01:33:52;;;;;;;;;;;;;;;7.35;95.09;101726.06;116346;1284;22443;-69
2022/11/11 01:36:41;;;;;;;;;;;;;;;7.39;95.12;101727.59;116361;1277;24221;-69
2022/11/11 01:39:28;;;;;;;;;;;;;;;7.44;95.12;101724.80;116343;1303;24288;-69
2022/11/11 01:42:18;;;;;;;;;;;;;;;7.50;95.11;101722.35;116343;1303;22388;-68
2022/11/11 01:45:47;;;;;;;;;;;;;;;7.54;95.22;101713.83;116315;1287;25197;-69
2022/11/11 01:51:56;;;;;;;;;;;;;;;7.54;94.76;101709.32;116358;1284;22427;-69
2022/11/11 01:54:47;;;;;;;;;;;;;;;7.53;94.63;101707.40;116243;1306;22517;-68
2022/11/11 01:57:36;;;;;;;;;;;;;;;7.52;94.36;101702.54;116211;1291;22445;-69
2022/11/11 02:00:27;;;;;;;;;;;;;;;7.54;94.53;101696.80;116227;1284;22615;-70
2022/11/11 02:03:19;;;;;;;;;;;;;;;7.59;94.80;101698.02;116229;1298;22577;-68
2022/11/11 02:06:09;;;;;;;;;;;;;;;7.63;94.91;101696.08;116263;1304;22461;-70
2022/11/11 02:08:59;;;;;;;;;;;;;;;7.64;94.68;101695.21;116177;1305;22548;-70
2022/11/11 02:15:00;;;;;;;;;;;;;;;7.55;94.45;101689.34;116224;1306;22531;-69
2022/11/11 02:17:50;;;;;;;;;;;;;;;7.49;94.07;101692.14;116183;1284;22461;-68
2022/11/11 02:20:41;;;;;;;;;;;;;;;7.44;93.95;101689.03;116191;1306;22508;-70
2022/11/11 02:23:30;;;;;;;;;;;;;;;7.43;94.09;101691.46;116194;1300;22446;-70
2022/11/11 02:26:18;;;;;;;;;;;;;;;7.40;93.91;101692.52;116197;1299;22453;-69
2022/11/11 02:29:08;;;;;;;;;;;;;;;7.36;94.17;101688.55;116187;1293;22454;-67
2022/11/11 02:31:58;;;;;;;;;;;;;;;7.33;94.17;101693.77;116197;1289;25252;-70
2022/11/11 02:34:46;;;;;;;;;;;;;;;7.26;94.06;101694.83;116202;1291;22491;-69
2022/11/11 02:37:40;;;;;;;;;;;;;;;7.17;94.12;101708.73;116173;1284;22444;-69
2022/11/11 02:40:31;;;;;;;;;;;;;;;7.11;93.90;101713.96;116230;1285;25335;-68
2022/11/11 02:43:18;;;;;;;;;;;;;;;7.05;93.88;101713.98;116227;1303;22448;-67
2022/11/11 02:46:09;;;;;;;;;;;;;;;7.01;93.87;101714.16;116234;1302;23972;-70
2022/11/11 02:48:59;;;;;;;;;;;;;;;6.98;93.97;101714.33;116247;1282;22437;-69
2022/11/11 02:51:46;;;;;;;;;;;;;;;6.95;94.11;101720.42;116241;1287;25823;-69
2022/11/11 02:54:35;;;;;;;;;;;;;;;6.88;94.06;101725.98;116404;1297;22433;-69
2022/11/11 02:57:25;;;;;;;;;;;;;;;6.82;94.05;101729.95;116324;1303;22451;-69
2022/11/11 03:00:15;;;;;;;;;;;;;;;6.71;93.68;101725.98;116378;1300;22900;-69
2022/11/11 03:03:02;;;;;;;;;;;;;;;6.61;93.73;101729.45;116342;1296;25196;-70
2022/11/11 03:05:53;;;;;;;;;;;;;;;6.57;94.02;101728.06;116334;1303;22485;-70
2022/11/11 03:08:42;;;;;;;;;;;;;;;6.57;94.49;101731.36;116355;1303;22515;-70
2022/11/11 03:11:30;;;;;;;;;;;;;;;6.59;94.76;101732.73;116350;1303;22545;-70
2022/11/11 03:14:21;;;;;;;;;;;;;;;6.61;94.66;101731.71;116342;1300;22434;-70
2022/11/11 03:23:31;;;;;;;;;;;;;;;6.57;94.68;101739.34;116303;1297;22497;-68
2022/11/11 03:26:19;;;;;;;;;;;;;;;6.54;95.12;101739.85;116390;1302;25262;-70
2022/11/11 03:29:12;;;;;;;;;;;;;;;6.54;94.93;101728.40;116349;1291;22453;-69
2022/11/11 03:32:02;;;;;;;;;;;;;;;6.55;95.07;101736.04;116388;1288;22452;-68
2022/11/11 03:34:54;;;;;;;;;;;;;;;6.58;95.56;101730.50;116426;1283;22450;-69
2022/11/11 03:40:57;;;;;;;;;;;;;;;6.75;95.92;101739.51;116367;1290;22440;-69
2022/11/11 03:43:45;;;;;;;;;;;;;;;6.81;96.09;101748.70;116381;1281;22440;-69
2022/11/11 03:46:36;;;;;;;;;;;;;;;6.84;95.79;101755.45;116353;1299;22433;-69
2022/11/11 03:49:26;;;;;;;;;;;;;;;6.82;95.59;101754.42;116392;1302;22445;-69
2022/11/11 03:52:14;;;;;;;;;;;;;;;6.83;95.43;101751.30;116343;1303;22460;-69
2022/11/11 03:55:03;;;;;;;;;;;;;;;6.86;95.37;101748.00;116348;1301;24366;-69
2022/11/11 03:57:53;;;;;;;;;;;;;;;6.93;95.70;101745.91;116372;1303;22433;-69
2022/11/11 04:00:44;;;;;;;;;;;;;;;7.02;95.84;101753.20;116335;1303;22456;-67
2022/11/11 04:16:07;;;;;;;;;;;;;;;7.12;95.29;101750.05;116380;1289;22529;-67
2022/11/11 04:22:06;;;;;;;;;;;;;;;7.22;95.47;101759.74;116326;1303;24370;-70
2022/11/11 04:31:11;;;;;;;;;;;;;;;7.29;95.27;101777.80;116356;1303;22390;-68
2022/11/11 04:34:00;;;;;;;;;;;;;;;7.31;95.40;101787.34;116336;1303;22457;-69
2022/11/11 04:36:47;;;;;;;;;;;;;;;7.33;95.44;101788.03;116388;1302;22438;-69
2022/11/11 04:42:48;;;;;;;;;;;;;;;7.40;95.23;101774.12;116317;1298;22554;-69
2022/11/11 04:45:37;;;;;;;;;;;;;;;7.43;95.30;101770.98;116328;1303;24260;-69
2022/11/11 04:48:24;;;;;;;;;;;;;;;7.46;95.34;101773.59;116325;1283;22578;-67
2022/11/11 04:51:14;;;;;;;;;;;;;;;7.47;95.22;101779.14;116362;1280;22409;-68
2022/11/11 04:54:02;;;;;;;;;;;;;;;7.47;95.37;101772.19;116334;1281;25345;-69
2022/11/11 04:56:50;;;;;;;;;;;;;;;7.48;95.17;101773.23;116362;1285;24372;-68
2022/11/11 04:59:39;;;;;;;;;;;;;;;7.53;95.27;101775.64;116341;1288;22447;-70
2022/11/11 05:08:54;;;;;;;;;;;;;;;7.61;95.22;101772.14;116385;1285;25193;-68
2022/11/11 05:08:57;;;;;;;;;;;;;;;7.64;95.28;101777.35;116356;1295;22444;-68
2022/11/11 05:11:47;;;;;;;;;;;;;;;7.67;95.34;101784.98;116398;1291;24311;-68
2022/11/11 05:27:16;;;;;;;;;;;;;;;7.80;95.28;101756.79;116320;1287;25345;-68
2022/11/11 05:30:08;;;;;;;;;;;;;;;7.86;95.28;101755.73;116331;1287;24245;-69
2022/11/11 05:32:56;;;;;;;;;;;;;;;7.88;95.16;101761.80;116337;1292;22476;-70
2022/11/11 05:35:46;;;;;;;;;;;;;;;7.87;94.91;101758.67;116343;1275;22385;-68
2022/11/11 05:38:33;;;;;;;;;;;;;;;7.88;94.80;101759.53;116299;1288;22452;-68
2022/11/11 05:41:20;;;;;;;;;;;;;;;7.90;94.72;101751.19;116337;1291;22461;-69
2022/11/11 05:44:10;;;;;;;;;;;;;;;7.93;94.92;101751.17;116335;1295;24271;-68
2022/11/11 05:47:00;;;;;;;;;;;;;;;7.97;95.03;101757.93;116348;1285;22766;-69
2022/11/11 05:49:50;;;;;;;;;;;;;;;7.99;94.99;101758.27;116352;1283;22529;-70
2022/11/11 05:52:40;;;;;;;;;;;;;;;8.00;94.89;101761.21;116371;1303;22448;-70
2022/11/11 05:55:31;;;;;;;;;;;;;;;7.99;94.68;101763.48;116379;1280;22415;-69
2022/11/11 05:58:23;;;;;;;;;;;;;;;8.00;94.66;101767.12;116379;1303;22466;-69
2022/11/11 06:01:12;;;;;;;;;;;;;;;8.06;94.66;101771.61;116359;1298;22444;-69
2022/11/11 06:04:06;;;;;;;;;;;;;;;8.11;94.85;101768.81;116338;1290;22435;-67
2022/11/11 06:06:57;;;;;;;;;;;;;;;8.14;94.83;101766.52;116319;1291;22429;-70
2022/11/11 06:09:47;;;;;;;;;;;;;;;8.15;94.60;101764.42;116365;1281;22463;-69
2022/11/11 06:13:00;;;;;;;;;;;;;;;8.14;94.43;101767.23;116313;1303;22482;-68
2022/11/11 06:15:50;;;;;;;;;;;;;;;8.12;94.30;101762.36;116322;1284;22456;-70
2022/11/11 06:18:40;;;;;;;;;;;;;;;8.13;94.17;101756.98;116303;1303;22452;-69
2022/11/11 06:21:30;;;;;;;;;;;;;;;8.16;94.42;101756.60;116343;1303;22436;-70
2022/11/11 06:24:20;;;;;;;;;;;;;;;8.19;94.37;101763.02;116336;1295;22563;-68
2022/11/11 06:27:07;;;;;;;;;;;;;;;8.23;94.50;101767.16;116341;1288;25239;-69
2022/11/11 06:29:54;;;;;;;;;;;;;;;8.25;94.49;101767.85;116357;1303;22426;-70
2022/11/11 06:32:41;;;;;;;;;;;;;;;8.24;94.28;101769.25;116354;1297;22441;-68
2022/11/11 06:35:28;;;;;;;;;;;;;;;8.24;94.08;101769.95;116430;1303;22506;-68
2022/11/11 06:38:15;;;;;;;;;;;;;;;8.27;94.11;101761.94;116378;1287;25355;-69
2022/11/11 06:41:02;;;;;;;;;;;;;;;8.32;94.20;101763.11;116374;1290;24238;-70
2022/11/11 06:43:49;;;;;;;;;;;;;;;8.37;94.28;101770.77;116391;1295;22435;-71
2022/11/11 06:46:45;;;;;;;;;;;;;;;8.42;94.32;101782.90;116385;1299;25367;-70
2022/11/11 06:49:33;;;;;;;;;;;;;;;8.45;94.35;101786.88;116417;1288;22480;-69
2022/11/11 06:52:20;;;;;;;;;;;;;;;8.43;93.85;101786.38;116396;1295;22449;-70
2022/11/11 06:55:08;;;;;;;;;;;;;;;8.42;93.84;101782.73;116423;1297;22406;-68
2022/11/11 06:58:06;;;;;;;;;;;;;;;8.43;93.72;101780.83;116330;1304;22435;-69
2022/11/11 07:00:55;;;;;;;;;;;;;;;8.45;93.64;101782.54;116360;1292;22435;-69
2022/11/11 07:03:42;;;;;;;;;;;;;;;8.50;93.82;101777.46;116310;1295;22515;-68
2022/11/11 07:06:38;;;;;;;;;;;;;;;8.57;93.98;101771.67;116329;1304;22516;-68
2022/11/11 07:09:28;;;;;;;;;;;;;;;8.60;93.71;101770.95;116316;1303;22454;-70
2022/11/11 07:12:18;;;;;;;;;;;;;;;8.63;93.98;101773.19;116325;1295;22442;-68
2022/11/11 07:15:09;;;;;;;;;;;;;;;8.64;93.71;101776.66;116330;1304;22414;-69
2022/11/11 07:17:58;;;;;;;;;;;;;;;8.63;93.57;101772.33;116340;1285;22455;-69
2022/11/11 07:20:48;;;;;;;;;;;;;;;8.63;93.25;101768.67;116354;1277;22457;-70
2022/11/11 07:23:35;;;;;;;;;;;;;;;8.64;93.03;101771.80;116359;1289;22571;-71
2022/11/11 07:26:23;;;;;;;;;;;;;;;8.65;93.05;101770.21;116366;1303;22421;-68
2022/11/11 07:29:14;;;;;;;;;;;;;;;8.64;92.91;101759.44;116327;1307;22510;-70
2022/11/11 07:32:03;;;;;;;;;;;;;;;8.65;93.21;101755.95;116338;1309;22494;-69
2022/11/11 07:34:51;;;;;;;;;;;;;;;8.63;93.12;101751.80;116372;1304;22401;-68
2022/11/11 07:37:40;;;;;;;;;;;;;;;8.65;93.39;101746.21;116375;1287;22439;-69
2022/11/11 07:40:27;;;;;;;;;;;;;;;8.69;93.28;101750.17;116401;1304;22583;-70
2022/11/11 07:43:15;;;;;;;;;;;;;;;8.75;93.35;101746.48;116343;1304;22450;-71
2022/11/11 07:46:02;;;;;;;;;;;;;;;8.81;93.42;101748.86;116340;1304;22553;-68
2022/11/11 07:48:49;;;;;;;;;;;;;;;8.90;93.61;101742.52;116315;1278;22453;-68
2022/11/11 07:51:43;;;;;;;;;;;;;;;8.97;93.48;101749.08;116353;1304;24279;-68
2022/11/11 07:54:35;;;;;;;;;;;;;;;9.03;93.28;101755.45;116317;1289;22484;-69
2022/11/11 07:57:24;;;;;;;;;;;;;;;9.05;93.20;101756.83;116310;1290;25187;-70
2022/11/11 08:00:15;;;;;;;;;;;;;;;9.08;93.12;101755.41;116302;1298;22475;-70
2022/11/11 08:03:02;;;;;;;;;;;;;;;9.09;93.11;101760.97;116332;1297;22437;-68
2022/11/11 08:05:49;;;;;;;;;;;;;;;9.11;92.75;101766.52;116344;1303;24366;-68
2022/11/11 08:08:36;;;;;;;;;;;;;;;9.17;92.84;101773.60;116333;1284;22433;-70
2022/11/11 08:14:26;;;;;;;;;;;;;;;9.40;93.31;101775.63;116377;1303;22410;-70
2022/11/11 08:17:16;;;;;;;;;;;;;;;9.53;93.45;101771.66;116399;1292;22429;-70
2022/11/11 08:20:04;;;;;;;;;;;;;;;9.61;92.95;101772.09;116450;1295;22524;-67
2022/11/11 08:22:54;;;;;;;;;;;;;;;9.66;92.58;101770.98;116373;1295;22442;-69
2022/11/11 08:25:45;;;;;;;;;;;;;;;9.70;92.57;101770.76;116363;1303;24359;-71
2022/11/11 08:28:38;;;;;;;;;;;;;;;9.76;92.42;101773.30;116377;1297;24420;-71
2022/11/11 08:31:25;;;;;;;;;;;;;;;9.86;92.42;101776.83;116390;1299;22453;-69
2022/11/11 08:34:15;;;;;;;;;;;;;;;9.96;92.50;101783.16;116302;1303;22462;-70
2022/11/11 08:37:02;;;;;;;;;;;;;;;10.07;92.21;101788.76;116319;1297;22439;-70
2022/11/11 08:39:52;;;;;;;;;;;;;;;10.14;91.71;101781.02;116335;1294;22417;-70
2022/11/11 08:42:41;;;;;;;;;;;;;;;10.20;91.48;101779.34;116317;1284;22435;-69
2022/11/11 08:45:30;;;;;;;;;;;;;;;10.26;91.37;101770.05;116359;1303;22452;-70
2022/11/11 08:48:18;;;;;;;;;;;;;;;10.28;91.16;101773.67;116301;1303;23049;-69
2022/11/11 08:51:05;;;;;;;;;;;;;;;10.29;90.82;101773.84;116336;1304;22709;-69
2022/11/11 08:53:55;;;;;;;;;;;;;;;10.29;90.36;101779.41;116361;1303;22525;-69
2022/11/11 08:56:46;;;;;;;;;;;;;;;10.29;90.18;101785.35;116349;1289;22448;-69
2022/11/11 08:59:40;;;;;;;;;;;;;;;10.34;90.31;101791.56;116391;1296;25499;-70
2022/11/11 09:02:30;;;;;;;;;;;;;;;10.44;90.44;101791.60;116357;1295;22423;-69
2022/11/11 09:05:20;;;;;;;;;;;;;;;10.55;90.56;101797.02;116415;1303;22433;-68
2022/11/11 09:08:07;;;;;;;;;;;;;;;10.64;90.41;101797.23;116368;1303;22584;-70
2022/11/11 09:10:54;;;;;;;;;;;;;;;10.72;90.56;101796.75;116383;1289;25360;-68
2022/11/11 09:13:42;;;;;;;;;;;;;;;10.79;90.14;101792.97;116319;1303;22463;-70
2022/11/11 09:16:29;;;;;;;;;;;;;;;10.80;89.50;101792.77;116321;1293;22448;-71
2022/11/11 09:19:20;;;;;;;;;;;;;;;10.80;89.06;101797.32;116365;1288;22535;-70
2022/11/11 09:22:09;;;;;;;;;;;;;;;10.84;88.94;101791.67;116351;1303;22561;-70
2022/11/11 09:25:00;;;;;;;;;;;;;;;10.88;88.82;101783.76;116345;1284;22485;-69
2022/11/11 09:27:58;;;;;;;;;;;;;;;10.94;88.72;101782.96;116308;1303;22443;-71
2022/11/11 09:30:50;;;;;;;;;;;;;;;10.99;88.47;101778.86;116380;1284;22455;-70
2022/11/11 09:33:38;;;;;;;;;;;;;;;11.05;88.33;101769.33;116337;1303;22446;-70
2022/11/11 09:36:25;;;;;;;;;;;;;;;11.07;88.03;101765.95;116388;1303;22501;-69
2022/11/11 09:39:14;;;;;;;;;;;;;;;11.10;87.60;101758.56;116351;1303;22515;-70
2022/11/11 09:42:12;;;;;;;;;;;;;;;11.06;87.18;101766.52;116353;1274;25216;-70
2022/11/11 09:45:12;;;;;;;;;;;;;;;11.00;86.91;101769.92;116371;1303;22439;-70
2022/11/11 09:48:02;;;;;;;;;;;;;;;10.96;86.97;101773.48;116345;1303;22442;-71
2022/11/11 09:50:54;;;;;;;;;;;;;;;10.94;86.77;101774.77;116357;1303;24405;-69
2022/11/11 09:53:42;;;;;;;;;;;;;;;10.95;86.86;101771.41;116386;1303;22424;-71
2022/11/11 09:56:29;;;;;;;;;;;;;;;10.96;86.37;101766.67;116346;1290;22402;-69
2022/11/11 09:59:21;;;;;;;;;;;;;;;10.98;86.44;101762.44;116316;1303;22481;-69
2022/11/11 10:02:16;;;;;;;;;;;;;;;11.05;86.54;101755.01;116278;1289;25351;-70
2022/11/11 10:05:05;;;;;;;;;;;;;;;11.08;86.57;101750.23;116348;1295;22475;-70
2022/11/11 10:07:54;;;;;;;;;;;;;;;11.10;86.53;101741.29;116346;1278;22457;-72
2022/11/11 10:10:45;;;;;;;;;;;;;;;11.11;86.51;101743.02;116318;1285;22448;-69
2022/11/11 10:13:34;;;;;;;;;;;;;;;11.11;86.22;101750.00;116326;1282;22437;-70
2022/11/11 10:16:26;;;;;;;;;;;;;;;11.09;86.05;101742.17;116377;1303;22435;-70
2022/11/11 10:19:23;;;;;;;;;;;;;;;11.05;85.79;101745.56;116350;1303;22433;-71
2022/11/11 10:22:21;;;;;;;;;;;;;;;11.06;86.06;101742.04;116328;1287;22449;-71
2022/11/11 10:25:22;;;;;;;;;;;;;;;11.10;85.98;101736.21;116353;1303;22567;-70
2022/11/11 10:28:10;;;;;;;;;;;;;;;11.15;85.80;101725.65;116330;1303;24264;-70
2022/11/11 10:30:58;;;;;;;;;;;;;;;11.18;85.35;101720.71;116360;1298;22552;-70
2022/11/11 10:33:48;;;;;;;;;;;;;;;11.16;85.26;101728.60;116352;1284;25437;-68
2022/11/11 10:36:35;;;;;;;;;;;;;;;11.16;85.12;101737.51;116308;1296;25301;-71
2022/11/11 10:39:27;;;;;;;;;;;;;;;11.18;85.59;101739.39;116400;1303;22455;-69
2022/11/11 10:42:17;;;;;;;;;;;;;;;11.23;85.46;101740.52;116324;1303;22398;-70
2022/11/11 10:45:08;;;;;;;;;;;;;;;11.25;85.24;101748.34;116345;1276;22437;-70
2022/11/11 10:47:58;;;;;;;;;;;;;;;11.28;85.13;101746.19;116304;1303;24261;-70
2022/11/11 10:50:47;;;;;;;;;;;;;;;11.29;84.87;101745.48;116319;1303;22449;-68
2022/11/11 10:53:39;;;;;;;;;;;;;;;11.31;84.78;101740.54;116303;1303;22443;-68
2022/11/11 10:56:33;;;;;;;;;;;;;;;11.34;84.56;101733.49;116338;1273;22432;-69
2022/11/11 10:59:26;;;;;;;;;;;;;;;11.42;84.78;101732.30;116300;1303;23004;-68
2022/11/11 11:02:20;;;;;;;;;;;;;;;11.50;84.80;101726.17;116306;1284;22494;-68
2022/11/11 11:05:14;;;;;;;;;;;;;;;11.60;84.78;101717.75;116344;1303;22450;-69
2022/11/11 11:08:06;;;;;;;;;;;;;;;11.68;84.46;101720.92;116313;1291;22435;-71
2022/11/11 11:10:57;;;;;;;;;;;;;;;11.71;84.22;101716.48;116363;1298;25360;-70
2022/11/11 11:13:48;;;;;;;;;;;;;;;11.71;83.91;101708.79;116320;1285;25891;-70
2022/11/11 11:16:37;;;;;;;;;;;;;;;11.67;83.49;101709.23;116367;1280;22561;-70
2022/11/11 11:19:32;;;;;;;;;;;;;;;11.62;83.26;101706.89;116326;1291;23961;-71
2022/11/11 11:22:21;;;;;;;;;;;;;;;11.60;83.23;101705.17;116314;1282;22448;-69
2022/11/11 11:25:14;;;;;;;;;;;;;;;11.60;83.59;101699.60;116337;1289;22453;-71
2022/11/11 11:28:12;;;;;;;;;;;;;;;11.64;83.64;101693.92;116287;1291;25869;-69
2022/11/11 11:31:04;;;;;;;;;;;;;;;11.66;82.62;101690.02;116330;1303;22448;-69
2022/11/11 11:33:59;;;;;;;;;;;;;;;11.65;82.56;101683.92;116337;1303;22553;-69
2022/11/11 11:36:46;;;;;;;;;;;;;;;11.68;82.77;101690.86;116317;1303;22412;-70
2022/11/11 11:39:38;;;;;;;;;;;;;;;11.71;82.84;101690.27;116367;1303;22570;-71
2022/11/11 11:42:39;;;;;;;;;;;;;;;11.74;82.89;101691.08;116328;1303;22541;-72
2022/11/11 11:45:30;;;;;;;;;;;;;;;11.73;82.23;101693.19;116367;1294;22681;-71
2022/11/11 11:48:24;;;;;;;;;;;;;;;11.70;82.39;101695.19;116321;1303;24260;-68
2022/11/11 11:51:17;;;;;;;;;;;;;;;11.67;82.19;101701.03;116348;1291;22484;-68
2022/11/11 11:54:22;;;;;;;;;;;;;;;11.65;82.58;101708.41;116320;1303;22472;-68
2022/11/11 11:57:19;;;;;;;;;;;;;;;11.63;82.66;101712.29;116295;1294;22450;-70
2022/11/11 12:00:13;;;;;;;;;;;;;;;11.63;82.30;101708.28;116330;1278;25364;-70
2022/11/11 12:03:21;;;;;;;;;;;;;;;11.61;81.99;101692.77;116322;1280;22467;-71
2022/11/11 12:06:11;;;;;;;;;;;;;;;11.64;82.17;101687.12;116282;1303;22451;-69
2022/11/11 12:09:06;;;;;;;;;;;;;;;11.69;82.29;101689.10;115859;1303;616215;-70
2022/11/11 12:11:59;;;;;;;;;;;;;;;11.75;82.55;101689.13;116310;1303;22450;-70
2022/11/11 12:14:56;;;;;;;;;;;;;;;11.80;82.08;101694.96;116342;1293;22581;-69
2022/11/11 12:17:51;;;;;;;;;;;;;;;11.84;81.99;101700.70;116276;1303;22581;-72
2022/11/11 12:20:43;;;;;;;;;;;;;;;11.86;81.92;101698.36;116345;1303;22448;-68
2022/11/11 12:23:43;;;;;;;;;;;;;;;11.86;81.86;101703.94;116319;1303;22447;-69
2022/11/11 12:26:35;;;;;;;;;;;;;;;11.84;81.59;101708.36;116367;1296;22447;-70
2022/11/11 12:29:35;;;;;;;;;;;;;;;11.80;81.39;101711.93;116327;1292;22467;-70
2022/11/11 12:32:48;;;;;;;;;;;;;;;11.77;81.33;101716.70;116336;1283;25396;-71
2022/11/11 12:35:41;;;;;;;;;;;;;;;11.76;81.19;101721.44;116253;1302;22480;-70
2022/11/11 12:38:37;;;;;;;;;;;;;;;11.74;80.85;101720.09;116355;1280;22451;-70
2022/11/11 12:41:36;;;;;;;;;;;;;;;11.70;80.73;101716.69;116368;1303;22459;-71
2022/11/11 12:44:24;;;;;;;;;;;;;;;11.67;80.73;101721.83;116350;1303;22484;-69
2022/11/11 12:47:24;;;;;;;;;;;;;;;11.62;80.72;101735.37;116341;1303;22391;-70
2022/11/11 12:50:19;;;;;;;;;;;;;;;11.57;80.76;101743.69;116291;1285;22434;-71
2022/11/11 12:53:14;;;;;;;;;;;;;;;11.50;80.79;101727.23;116302;1302;22399;-71
2022/11/11 12:56:08;;;;;;;;;;;;;;;11.44;80.79;101724.20;116332;1296;22440;-69
2022/11/11 12:58:57;;;;;;;;;;;;;;;11.40;80.92;101715.55;116310;1303;22465;-72
2022/11/11 13:01:56;;;;;;;;;;;;;;;11.38;80.83;101708.44;116360;1294;22450;-67
2022/11/11 13:04:53;;;;;;;;;;;;;;;11.39;80.83;101709.65;116337;1282;22461;-70
2022/11/11 13:08:00;;;;;;;;;;;;;;;11.40;81.04;101701.94;116316;1303;22471;-71
2022/11/11 13:10:51;;;;;;;;;;;;;;;11.44;80.95;101699.75;116323;1290;25189;-70
2022/11/11 13:13:49;;;;;;;;;;;;;;;11.47;80.75;101693.40;116342;1284;22450;-70
2022/11/11 13:16:36;;;;;;;;;;;;;;;11.48;81.06;101690.08;116350;1303;22511;-71
2022/11/11 13:19:29;;;;;;;;;;;;;;;11.50;80.89;101688.45;116328;1303;22527;-70
2022/11/11 13:22:23;;;;;;;;;;;;;;;11.48;80.58;101686.04;116316;1303;22408;-70
2022/11/11 13:25:18;;;;;;;;;;;;;;;11.44;80.64;101684.55;116353;1291;22438;-70
2022/11/11 13:28:08;;;;;;;;;;;;;;;11.42;80.68;101684.08;116283;1282;24232;-69
2022/11/11 13:31:01;;;;;;;;;;;;;;;11.37;80.22;101683.82;116320;1285;22470;-70
2022/11/11 13:33:50;;;;;;;;;;;;;;;11.32;80.39;101683.91;116306;1302;22457;-69
2022/11/11 13:36:44;;;;;;;;;;;;;;;11.29;80.70;101686.08;116351;1276;22443;-70
2022/11/11 13:39:35;;;;;;;;;;;;;;;11.24;80.54;101689.66;116294;1303;22506;-70
2022/11/11 13:42:25;;;;;;;;;;;;;;;11.19;80.62;101695.52;116306;1303;22399;-69
2022/11/11 13:45:25;;;;;;;;;;;;;;;11.13;80.65;101702.80;116336;1283;22440;-71
2022/11/11 13:48:21;;;;;;;;;;;;;;;11.09;80.76;101701.31;116290;1287;22452;-69
2022/11/11 13:51:20;;;;;;;;;;;;;;;11.04;80.68;101701.58;116346;1302;22440;-70
2022/11/11 13:54:19;;;;;;;;;;;;;;;10.98;80.76;101700.64;116309;1303;24416;-70
2022/11/11 13:57:08;;;;;;;;;;;;;;;10.94;80.55;101698.98;116320;1303;22427;-69
2022/11/11 13:59:59;;;;;;;;;;;;;;;10.95;80.86;101701.92;116340;1296;22435;-69
2022/11/11 14:02:48;;;;;;;;;;;;;;;10.98;80.78;101701.16;116323;1303;22546;-69
2022/11/11 14:05:35;;;;;;;;;;;;;;;11.01;80.66;101703.55;116293;1303;22430;-69
2022/11/11 14:08:53;;;;;;;;;;;;;;;11.02;80.55;101702.14;116309;1303;22459;-68
2022/11/11 14:11:41;;;;;;;;;;;;;;;11.01;80.36;101703.73;116339;1303;22512;-68
2022/11/11 14:14:59;;;;;;;;;;;;;;;10.96;80.48;101703.64;116374;1285;22435;-70
2022/11/11 14:17:47;;;;;;;;;;;;;;;10.92;80.29;101711.05;116303;1282;22450;-70
2022/11/11 14:20:38;;;;;;;;;;;;;;;10.86;80.25;101707.14;116359;1303;25354;-69
2022/11/11 14:23:32;;;;;;;;;;;;;;;10.81;80.31;101709.67;116325;1293;25443;-69
2022/11/11 14:26:27;;;;;;;;;;;;;;;10.76;80.26;101717.28;116307;1295;22456;-69
2022/11/11 14:29:19;;;;;;;;;;;;;;;10.69;80.29;101707.80;116323;1294;22514;-69
2022/11/11 14:32:14;;;;;;;;;;;;;;;10.62;80.35;101703.72;116326;1281;25304;-69
2022/11/11 14:35:35;;;;;;;;;;;;;;;10.60;80.70;101705.16;116344;1296;22430;-70
2022/11/11 14:38:33;;;;;;;;;;;;;;;10.61;80.66;101711.77;115941;1309;24251;-70
2022/11/11 14:41:49;;;;;;;;;;;;;;;10.64;81.01;101712.59;116353;1290;22444;-68
2022/11/11 14:44:48;;;;;;;;;;;;;;;10.70;80.97;101726.46;116333;1283;22485;-69
2022/11/11 14:47:36;;;;;;;;;;;;;;;10.69;81.09;101728.73;116336;1297;22437;-71
2022/11/11 14:50:44;;;;;;;;;;;;;;;10.69;81.02;101718.78;116331;1303;22453;-70
2022/11/11 14:53:36;;;;;;;;;;;;;;;10.65;80.83;101714.84;116318;1293;22457;-69
2022/11/11 14:56:25;;;;;;;;;;;;;;;10.59;80.86;101718.25;116328;1294;22453;-70
2022/11/11 14:59:16;;;;;;;;;;;;;;;10.54;81.08;101721.84;116333;1303;24386;-70
2022/11/11 15:02:04;;;;;;;;;;;;;;;10.48;80.99;101718.09;116305;1303;22419;-70
2022/11/11 15:04:56;;;;;;;;;;;;;;;10.40;80.99;101712.46;116289;1303;22517;-69
2022/11/11 15:08:07;;;;;;;;;;;;;;;10.30;81.08;101714.36;116275;1282;22445;-68
2022/11/11 15:11:09;;;;;;;;;;;;;;;10.17;81.36;101722.70;116312;1302;22440;-69
2022/11/11 15:14:15;;;;;;;;;;;;;;;10.07;81.43;101723.91;116304;1303;22441;-68
2022/11/11 15:17:15;;;;;;;;;;;;;;;9.97;81.76;101727.88;116309;1291;22469;-68
2022/11/11 15:20:17;;;;;;;;;;;;;;;9.89;81.95;101733.22;116340;1291;25255;-69
2022/11/11 15:23:11;;;;;;;;;;;;;;;9.86;82.25;101732.05;116340;1303;22437;-69
2022/11/11 15:26:10;;;;;;;;;;;;;;;9.89;82.54;101732.71;116322;1270;25411;-69
2022/11/11 15:29:11;;;;;;;;;;;;;;;9.96;82.96;101732.42;116335;1283;22442;-70
2022/11/11 15:32:03;;;;;;;;;;;;;;;10.06;83.23;101735.95;116327;1281;22540;-69
2022/11/11 15:34:56;;;;;;;;;;;;;;;10.18;83.28;101741.53;116354;1295;22458;-68
2022/11/11 15:37:50;;;;;;;;;;;;;;;10.25;83.06;101740.75;116287;1303;22456;-67
2022/11/11 15:40:46;;;;;;;;;;;;;;;10.30;83.04;101740.52;116320;1303;22557;-70
2022/11/11 15:43:35;;;;;;;;;;;;;;;10.34;82.98;101748.67;116289;1281;22443;-69
2022/11/11 15:46:26;;;;;;;;;;;;;;;10.34;82.76;101762.44;116367;1303;22517;-69
2022/11/11 15:49:39;;;;;;;;;;;;;;;10.31;82.79;101768.59;116369;1300;22442;-69